Time;durP1;ratioP1;P1;durP2;ratioP2;P2;SDS_P1;SDS_P2;PMS_P1;PMS_P2;Temp;Humidity;BMP_temperature;BMP_pressure;BME280_temperature;BME280_humidity;BME280_pressure;Samples;Min_cycle;Max_cycle;Signal;HPM_P1;HPM_P2
2021/03/05 00:00:37;;;;;;;5.10;2.60;;;2.80;98.30;;;;;;5190845;22;20208;-81
2021/03/05 00:02:41;;;;;;;4.72;2.70;;;2.80;98.30;;;;;;5192040;22;20279;-81
2021/03/05 00:05:04;;;;;;;5.30;2.70;;;2.70;98.30;;;;;;5191698;22;20200;-81
2021/03/05 00:07:06;;;;;;;5.07;2.70;;;2.70;98.30;;;;;;5191811;22;20298;-81
2021/03/05 00:09:08;;;;;;;4.07;2.50;;;2.70;98.30;;;;;;5199554;22;20238;-81
2021/03/05 00:11:10;;;;;;;5.05;3.00;;;2.80;98.30;;;;;;5199693;22;20204;-81
2021/03/05 00:13:13;;;;;;;4.00;2.80;;;2.80;98.30;;;;;;5199862;22;20210;-81
2021/03/05 00:15:15;;;;;;;4.95;2.88;;;2.70;98.30;;;;;;5192067;22;20246;-81
2021/03/05 00:17:18;;;;;;;4.22;3.22;;;2.60;98.30;;;;;;5200427;22;20275;-82
2021/03/05 00:19:21;;;;;;;4.18;2.42;;;2.60;98.30;;;;;;5191546;22;20231;-81
2021/03/05 00:21:23;;;;;;;4.28;2.50;;;2.60;98.30;;;;;;5202791;22;20215;-81
2021/03/05 00:23:25;;;;;;;4.93;2.80;;;2.60;98.30;;;;;;5202474;22;20203;-81
2021/03/05 00:25:28;;;;;;;8.05;2.83;;;2.70;98.30;;;;;;5199391;22;20275;-81
2021/03/05 00:27:30;;;;;;;4.90;3.05;;;2.70;98.30;;;;;;5199688;22;20196;-81
2021/03/05 00:29:32;;;;;;;4.32;2.90;;;2.60;98.30;;;;;;5198716;22;20204;-81
2021/03/05 00:31:34;;;;;;;4.55;2.70;;;2.60;98.30;;;;;;5199602;22;20267;-82
2021/03/05 00:33:36;;;;;;;5.47;3.08;;;2.60;98.30;;;;;;5191438;22;20204;-81
2021/03/05 00:35:40;;;;;;;13.02;3.38;;;2.50;98.30;;;;;;5191547;22;20667;-82
2021/03/05 00:37:43;;;;;;;5.45;2.95;;;2.50;98.30;;;;;;5191086;22;20204;-81
2021/03/05 00:39:45;;;;;;;3.00;2.63;;;2.40;98.30;;;;;;5190379;22;20806;-81
2021/03/05 00:41:47;;;;;;;4.00;2.90;;;2.40;98.30;;;;;;5199353;22;20216;-82
2021/03/05 00:43:50;;;;;;;7.20;3.10;;;2.40;98.30;;;;;;5199661;22;20200;-82
2021/03/05 00:45:52;;;;;;;3.60;2.35;;;2.40;98.30;;;;;;5191347;22;20563;-82
2021/03/05 00:47:55;;;;;;;6.15;2.90;;;2.40;98.30;;;;;;5191480;22;20269;-81
2021/03/05 00:49:57;;;;;;;5.60;3.00;;;2.40;98.30;;;;;;5189923;22;20235;-82
2021/03/05 00:52:00;;;;;;;5.35;2.80;;;2.40;98.30;;;;;;5199676;22;20207;-82
2021/03/05 00:54:02;;;;;;;7.32;3.55;;;2.30;98.30;;;;;;5190823;22;20290;-82
2021/03/05 00:56:05;;;;;;;5.75;2.88;;;2.40;98.30;;;;;;5199471;22;20227;-82
2021/03/05 00:58:07;;;;;;;7.35;3.78;;;2.30;98.30;;;;;;5198806;22;20200;-82
2021/03/05 01:00:12;;;;;;;5.40;3.40;;;2.30;98.30;;;;;;5198789;22;20738;-82
2021/03/05 01:02:14;;;;;;;7.63;3.25;;;2.30;98.30;;;;;;5190615;22;20211;-83
2021/03/05 01:04:16;;;;;;;6.55;2.95;;;2.20;98.30;;;;;;5199078;22;20208;-82
2021/03/05 01:06:18;;;;;;;5.60;3.40;;;2.20;98.30;;;;;;5199695;22;20587;-82
2021/03/05 01:08:21;;;;;;;8.02;3.30;;;2.20;98.30;;;;;;5191079;22;20227;-82
2021/03/05 01:10:23;;;;;;;6.05;3.47;;;2.20;98.30;;;;;;5190499;22;20279;-82
2021/03/05 01:12:26;;;;;;;7.85;3.42;;;2.20;98.30;;;;;;5199612;22;20827;-82
2021/03/05 01:14:28;;;;;;;7.50;3.85;;;2.20;98.30;;;;;;5190937;22;20278;-81
2021/03/05 01:16:30;;;;;;;8.80;3.65;;;2.10;98.30;;;;;;5199632;22;20685;-80
2021/03/05 01:18:32;;;;;;;6.63;3.85;;;2.20;98.30;;;;;;5199018;22;20262;-81
2021/03/05 01:20:35;;;;;;;6.60;3.35;;;2.10;98.30;;;;;;5196521;22;20223;-81
2021/03/05 01:22:38;;;;;;;7.07;3.42;;;2.10;98.30;;;;;;5197855;22;20203;-81
2021/03/05 01:24:41;;;;;;;8.50;3.45;;;2.10;98.30;;;;;;5197903;22;20733;-81
2021/03/05 01:26:43;;;;;;;6.80;3.63;;;2.20;98.30;;;;;;5189804;22;20212;-81
2021/03/05 01:28:46;;;;;;;8.50;3.78;;;2.20;98.30;;;;;;5190616;22;20200;-81
2021/03/05 01:30:48;;;;;;;7.03;3.30;;;2.10;98.30;;;;;;5190099;22;20235;-81
2021/03/05 01:32:51;;;;;;;5.15;3.03;;;2.10;98.30;;;;;;5190116;22;20246;-81
2021/03/05 01:34:53;;;;;;;6.45;3.50;;;2.10;98.30;;;;;;5198893;22;20196;-81
2021/03/05 01:36:55;;;;;;;5.75;4.20;;;2.10;98.30;;;;;;5190955;22;20204;-81
2021/03/05 01:38:57;;;;;;;122.28;69.25;;;2.10;98.30;;;;;;5189897;22;20275;-81
2021/03/05 01:41:00;;;;;;;25.92;15.23;;;2.00;98.30;;;;;;5198517;22;20278;-81
2021/03/05 01:43:04;;;;;;;33.67;21.65;;;2.00;98.30;;;;;;5198516;22;20198;-81
2021/03/05 01:45:07;;;;;;;49.00;31.08;;;2.00;98.30;;;;;;5190437;22;20531;-81
2021/03/05 01:47:09;;;;;;;35.05;22.10;;;2.00;98.30;;;;;;5190654;22;20208;-81
2021/03/05 01:49:12;;;;;;;9.02;5.45;;;2.10;98.30;;;;;;5189643;22;20210;-81
2021/03/05 01:51:16;;;;;;;5.15;3.42;;;2.00;98.30;;;;;;5199253;22;20196;-81
2021/03/05 01:53:18;;;;;;;15.10;5.07;;;2.00;98.30;;;;;;5199092;22;20196;-81
2021/03/05 01:55:21;;;;;;;8.75;4.00;;;1.90;98.30;;;;;;5190551;22;20687;-81
2021/03/05 01:57:24;;;;;;;73.32;44.25;;;1.90;98.30;;;;;;5190669;22;20556;-81
2021/03/05 01:59:30;;;;;;;196.65;117.07;;;1.90;98.30;;;;;;5190422;22;20204;-82
2021/03/05 02:01:34;;;;;;;43.60;25.88;;;1.90;98.30;;;;;;5191514;22;20845;-82
2021/03/05 02:03:37;;;;;;;14.23;7.80;;;2.00;98.30;;;;;;5199188;22;20204;-82
2021/03/05 02:05:40;;;;;;;15.07;5.88;;;2.00;98.30;;;;;;5199593;22;20588;-82
2021/03/05 02:07:44;;;;;;;7.13;3.85;;;2.00;98.30;;;;;;5190622;22;20208;-82
2021/03/05 02:09:45;;;;;;;8.50;5.07;;;2.00;98.30;;;;;;5199667;22;20216;-82
2021/03/05 02:11:47;;;;;;;8.35;3.60;;;1.90;98.30;;;;;;5192326;22;20866;-81
2021/03/05 02:13:54;;;;;;;9.43;5.95;;;1.90;98.30;;;;;;5192038;22;20218;-81
2021/03/05 02:15:56;;;;;;;33.80;20.02;;;2.10;98.30;;;;;;5192516;22;20595;-81
2021/03/05 02:18:04;;;;;;;46.58;24.23;;;2.20;98.30;;;;;;5200494;22;20200;-81
2021/03/05 02:20:36;;;;;;;20.75;12.20;;;2.30;98.30;;;;;;5190585;22;20211;-81
2021/03/05 02:23:14;;;;;;;10.32;6.82;;;2.30;98.30;;;;;;5148769;22;20262;-81
2021/03/05 02:25:42;;;;;;;8.40;3.75;;;2.20;98.30;;;;;;5123751;22;20686;-81
2021/03/05 02:28:18;;;;;;;9.60;4.38;;;2.10;98.30;;;;;;5191879;22;20204;-81
2021/03/05 02:30:55;;;;;;;5.00;3.47;;;2.10;98.30;;;;;;5200019;22;20234;-81
2021/03/05 02:33:03;;;;;;;33.05;20.00;;;2.00;98.30;;;;;;5163657;22;20546;-82
2021/03/05 02:35:10;;;;;;;59.20;32.50;;;2.10;98.30;;;;;;5200702;22;20256;-81
2021/03/05 02:37:13;;;;;;;78.43;40.88;;;2.10;98.30;;;;;;5192808;22;20283;-82
2021/03/05 02:39:18;;;;;;;18.85;11.23;;;2.10;98.30;;;;;;5191278;22;20215;-82
2021/03/05 02:41:22;;;;;;;8.95;6.20;;;2.10;98.30;;;;;;5192801;22;20274;-81
2021/03/05 02:43:25;;;;;;;10.35;5.40;;;2.00;98.30;;;;;;5201336;22;20196;-81
2021/03/05 02:45:30;;;;;;;8.68;4.00;;;2.00;98.30;;;;;;5192384;22;20208;-81
2021/03/05 02:47:34;;;;;;;6.18;3.85;;;1.90;98.30;;;;;;5192072;22;20215;-81
2021/03/05 02:49:41;;;;;;;6.93;3.90;;;1.90;98.30;;;;;;5201623;22;20211;-81
2021/03/05 02:51:46;;;;;;;9.80;4.53;;;1.90;98.30;;;;;;5203208;22;20595;-81
2021/03/05 02:53:50;;;;;;;10.63;5.57;;;1.90;98.30;;;;;;5200398;22;20202;-82
2021/03/05 02:55:55;;;;;;;7.50;4.82;;;1.90;98.30;;;;;;5201045;22;20667;-81
2021/03/05 02:58:00;;;;;;;9.80;4.53;;;1.90;98.30;;;;;;5200450;22;20203;-82
2021/03/05 03:00:06;;;;;;;7.50;4.40;;;1.80;98.30;;;;;;5191457;22;20204;-82
2021/03/05 03:02:10;;;;;;;6.45;3.30;;;1.90;98.30;;;;;;5192122;22;20196;-81
2021/03/05 03:04:14;;;;;;;32.25;17.50;;;1.80;98.30;;;;;;5200357;22;20207;-83
2021/03/05 03:06:17;;;;;;;117.00;67.35;;;1.80;98.30;;;;;;5191914;22;20204;-82
2021/03/05 03:08:20;;;;;;;122.30;64.35;;;1.80;98.30;;;;;;5199398;22;20247;-81
2021/03/05 03:10:26;;;;;;;19.83;10.90;;;1.70;98.30;;;;;;5190377;22;20535;-81
2021/03/05 03:12:29;;;;;;;14.18;6.97;;;1.80;98.30;;;;;;5190301;22;20208;-81
2021/03/05 03:14:32;;;;;;;9.77;4.95;;;1.70;98.30;;;;;;5198816;22;20964;-82
2021/03/05 03:16:37;;;;;;;10.15;4.45;;;1.70;98.30;;;;;;5195932;22;20231;-80
2021/03/05 03:18:41;;;;;;;7.95;3.67;;;1.70;98.30;;;;;;5204711;22;20219;-80
2021/03/05 03:20:43;;;;;;;8.20;4.70;;;1.70;98.30;;;;;;5203037;22;20196;-80
2021/03/05 03:22:46;;;;;;;11.60;4.30;;;1.60;98.30;;;;;;5204711;22;20215;-80
2021/03/05 03:24:49;;;;;;;8.88;3.67;;;1.60;98.30;;;;;;5206155;22;20200;-80
2021/03/05 03:26:51;;;;;;;6.38;3.80;;;1.60;98.30;;;;;;5206039;22;20279;-80
2021/03/05 03:28:54;;;;;;;9.93;4.18;;;1.60;98.30;;;;;;5204228;22;20196;-80
2021/03/05 03:30:56;;;;;;;6.55;4.00;;;1.60;98.30;;;;;;5202711;22;20282;-80
2021/03/05 03:32:58;;;;;;;8.77;5.05;;;1.60;98.30;;;;;;5204418;22;20291;-81
2021/03/05 03:35:01;;;;;;;8.13;4.57;;;1.50;98.30;;;;;;5204105;22;20200;-81
2021/03/05 03:37:03;;;;;;;6.90;3.15;;;1.60;98.30;;;;;;5202814;22;20196;-79
2021/03/05 03:39:08;;;;;;;6.15;4.63;;;1.50;98.30;;;;;;5203196;22;20238;-80
2021/03/05 03:41:13;;;;;;;6.53;3.60;;;1.50;98.30;;;;;;5203764;22;20200;-80
2021/03/05 03:43:15;;;;;;;87.97;46.50;;;1.60;98.30;;;;;;5206095;22;20540;-80
2021/03/05 03:45:20;;;;;;;135.65;75.80;;;1.60;98.30;;;;;;5196236;22;20256;-80
2021/03/05 03:47:23;;;;;;;52.85;27.58;;;1.60;98.30;;;;;;5196897;22;20208;-81
2021/03/05 03:49:32;;;;;;;13.65;8.55;;;1.50;98.30;;;;;;5206329;22;20222;-80
2021/03/05 03:51:42;;;;;;;24.35;11.75;;;1.50;98.30;;;;;;5207513;22;20899;-82
2021/03/05 03:53:48;;;;;;;25.58;14.88;;;1.50;98.30;;;;;;5206136;22;20193;-80
2021/03/05 03:55:51;;;;;;;17.90;10.25;;;1.40;98.30;;;;;;5206441;22;20206;-81
2021/03/05 03:57:55;;;;;;;10.95;5.00;;;1.40;98.30;;;;;;5197668;22;20204;-80
2021/03/05 03:59:59;;;;;;;7.95;4.68;;;1.50;98.30;;;;;;5204898;22;20211;-80
2021/03/05 04:02:02;;;;;;;7.55;4.00;;;1.40;98.30;;;;;;5205044;22;20200;-82
2021/03/05 04:04:06;;;;;;;7.22;4.40;;;1.40;98.30;;;;;;5205748;22;20211;-80
2021/03/05 04:06:11;;;;;;;5.35;4.00;;;1.40;98.30;;;;;;5200830;22;20254;-81
2021/03/05 04:08:14;;;;;;;11.65;5.35;;;1.40;98.30;;;;;;5207109;22;20212;-80
2021/03/05 04:10:17;;;;;;;343.48;208.25;;;1.30;98.30;;;;;;5206334;22;20257;-80
2021/03/05 04:12:25;;;;;;;72.80;39.45;;;1.30;98.30;;;;;;5205579;22;20200;-80
2021/03/05 04:14:28;;;;;;;18.55;11.38;;;1.40;98.30;;;;;;5201954;22;20216;-81
2021/03/05 04:16:30;;;;;;;9.10;4.85;;;1.30;98.30;;;;;;5191797;22;20227;-81
2021/03/05 04:18:33;;;;;;;7.25;4.45;;;1.30;98.30;;;;;;5199477;22;20571;-81
2021/03/05 04:20:38;;;;;;;4.68;3.10;;;1.20;98.30;;;;;;5199111;22;20694;-81
2021/03/05 04:22:40;;;;;;;6.82;3.97;;;1.30;98.30;;;;;;5191208;22;20200;-81
2021/03/05 04:24:42;;;;;;;5.82;3.55;;;1.30;98.30;;;;;;5190942;22;20204;-81
2021/03/05 04:26:45;;;;;;;8.20;4.18;;;1.30;98.30;;;;;;5190863;22;20258;-81
2021/03/05 04:28:48;;;;;;;7.35;4.10;;;1.30;98.30;;;;;;5190469;22;20246;-81
2021/03/05 04:30:50;;;;;;;8.85;4.70;;;1.20;98.30;;;;;;5199064;22;20322;-81
2021/03/05 04:32:52;;;;;;;6.10;3.45;;;1.10;98.30;;;;;;5198651;22;20293;-81
2021/03/05 04:34:54;;;;;;;6.38;3.60;;;1.10;98.30;;;;;;5199596;22;20196;-81
2021/03/05 04:36:56;;;;;;;11.50;4.40;;;1.10;98.30;;;;;;5199850;22;20274;-81
2021/03/05 04:38:58;;;;;;;8.05;4.30;;;1.00;98.30;;;;;;5189734;22;20206;-81
2021/03/05 04:41:01;;;;;;;6.47;4.00;;;0.90;98.30;;;;;;5191722;22;20896;-81
2021/03/05 04:43:04;;;;;;;4.15;3.70;;;1.00;98.30;;;;;;5191111;22;20207;-81
2021/03/05 04:45:08;;;;;;;8.90;3.90;;;1.10;98.30;;;;;;5191737;22;20204;-81
2021/03/05 04:47:10;;;;;;;6.25;3.70;;;1.10;98.30;;;;;;5190884;22;20210;-81
2021/03/05 04:49:12;;;;;;;7.13;3.30;;;1.10;98.30;;;;;;5189886;22;20204;-81
2021/03/05 04:51:14;;;;;;;12.93;6.05;;;1.00;98.30;;;;;;5199167;22;20192;-81
2021/03/05 04:53:16;;;;;;;24.25;14.60;;;1.00;98.30;;;;;;5190830;22;20605;-81
2021/03/05 04:55:18;;;;;;;14.65;8.35;;;0.90;98.30;;;;;;5190972;22;20236;-81
2021/03/05 04:57:20;;;;;;;10.32;5.35;;;0.80;98.30;;;;;;5190715;22;20208;-81
2021/03/05 04:59:22;;;;;;;7.32;5.05;;;0.80;98.30;;;;;;5199245;22;20200;-81
2021/03/05 05:01:27;;;;;;;5.20;3.53;;;0.70;98.30;;;;;;5199398;22;20705;-82
2021/03/05 05:03:29;;;;;;;6.18;3.60;;;0.70;98.30;;;;;;5191474;22;20640;-82
2021/03/05 05:05:31;;;;;;;8.77;3.65;;;0.80;98.30;;;;;;5199718;22;20206;-81
2021/03/05 05:07:33;;;;;;;8.82;3.85;;;0.70;98.30;;;;;;5199644;22;20235;-81
2021/03/05 05:09:35;;;;;;;5.35;3.70;;;0.80;98.30;;;;;;5199291;22;20196;-82
2021/03/05 05:11:37;;;;;;;7.45;3.65;;;0.70;98.30;;;;;;5192027;22;20205;-81
2021/03/05 05:13:39;;;;;;;6.22;4.15;;;0.70;98.30;;;;;;5200145;22;20833;-82
2021/03/05 05:15:41;;;;;;;8.35;3.63;;;0.70;98.30;;;;;;5191663;22;20207;-81
2021/03/05 05:17:44;;;;;;;6.35;3.40;;;0.60;98.30;;;;;;5193051;22;20221;-81
2021/03/05 05:19:47;;;;;;;6.78;4.03;;;0.70;98.30;;;;;;5195267;22;20227;-82
2021/03/05 05:21:49;;;;;;;5.38;4.13;;;0.70;98.30;;;;;;5192663;22;20689;-81
2021/03/05 05:23:51;;;;;;;8.88;4.10;;;0.70;98.30;;;;;;5199481;22;20689;-82
2021/03/05 05:25:53;;;;;;;6.53;4.13;;;0.70;98.30;;;;;;5199872;22;20279;-81
2021/03/05 05:27:55;;;;;;;7.20;4.15;;;0.80;98.30;;;;;;5191797;22;20235;-81
2021/03/05 05:29:57;;;;;;;5.65;3.70;;;0.70;98.30;;;;;;5190511;22;20282;-81
2021/03/05 05:31:59;;;;;;;5.93;4.05;;;0.70;98.30;;;;;;5200401;22;20853;-81
2021/03/05 05:34:03;;;;;;;9.20;3.83;;;0.70;98.30;;;;;;5199911;22;20210;-82
2021/03/05 05:36:06;;;;;;;6.55;4.35;;;0.60;98.30;;;;;;5191847;22;20287;-82
2021/03/05 05:38:10;;;;;;;7.28;4.90;;;0.60;98.30;;;;;;5199888;22;20526;-82
2021/03/05 05:40:13;;;;;;;7.65;4.60;;;0.60;98.30;;;;;;5191216;22;20671;-82
2021/03/05 05:42:16;;;;;;;5.82;4.38;;;0.60;98.30;;;;;;5201018;22;20309;-82
2021/03/05 05:44:18;;;;;;;8.48;4.68;;;0.60;98.30;;;;;;5199902;22;20196;-82
2021/03/05 05:46:22;;;;;;;9.65;4.88;;;0.70;98.30;;;;;;5200482;22;20209;-82
2021/03/05 05:48:27;;;;;;;11.18;4.88;;;0.70;98.30;;;;;;5191677;22;20715;-82
2021/03/05 05:50:32;;;;;;;5.63;3.85;;;0.70;98.30;;;;;;5192185;22;20204;-82
2021/03/05 05:52:35;;;;;;;5.57;4.47;;;0.70;98.30;;;;;;5193160;22;20205;-82
2021/03/05 05:54:40;;;;;;;8.60;5.57;;;0.70;98.30;;;;;;5204180;22;20223;-82
2021/03/05 05:56:44;;;;;;;10.93;4.40;;;0.70;98.30;;;;;;5199853;22;20196;-82
2021/03/05 05:58:47;;;;;;;7.30;4.30;;;0.70;98.30;;;;;;5198877;22;20283;-82
2021/03/05 06:00:49;;;;;;;7.93;5.55;;;0.70;98.30;;;;;;5199088;22;20608;-81
2021/03/05 06:02:53;;;;;;;6.80;4.40;;;0.60;98.30;;;;;;5199137;22;20199;-81
2021/03/05 06:04:56;;;;;;;5.95;4.18;;;0.70;98.30;;;;;;5191017;22;20531;-82
2021/03/05 06:07:02;;;;;;;7.30;4.30;;;0.60;98.30;;;;;;5199318;22;20203;-81
2021/03/05 06:09:05;;;;;;;5.15;4.30;;;0.60;98.30;;;;;;5198671;22;20279;-81
2021/03/05 06:11:07;;;;;;;7.85;4.60;;;0.70;98.30;;;;;;5190971;22;20577;-81
2021/03/05 06:13:12;;;;;;;7.72;4.18;;;0.70;98.30;;;;;;5198531;22;20204;-81
2021/03/05 06:15:17;;;;;;;8.40;4.70;;;0.70;98.30;;;;;;5192365;22;20289;-81
2021/03/05 06:17:19;;;;;;;7.60;4.50;;;0.70;98.30;;;;;;5192333;22;20200;-82
2021/03/05 06:19:23;;;;;;;5.00;4.20;;;0.80;98.30;;;;;;5191211;22;20205;-82
2021/03/05 06:21:37;;;;;;;7.25;4.70;;;0.80;98.30;;;;;;5200213;22;20250;-81
2021/03/05 06:23:57;;;;;;;7.13;4.78;;;0.90;98.30;;;;;;5191766;22;20204;-81
2021/03/05 06:26:00;;;;;;;5.30;4.65;;;0.80;98.30;;;;;;5193019;22;20230;-82
2021/03/05 06:28:11;;;;;;;7.05;4.68;;;0.90;98.30;;;;;;5201703;22;20918;-81
2021/03/05 06:30:29;;;;;;;6.55;4.60;;;1.00;98.30;;;;;;5200937;22;20192;-82
2021/03/05 06:32:36;;;;;;;6.93;4.63;;;1.10;98.30;;;;;;5192398;22;20216;-82
2021/03/05 06:34:47;;;;;;;6.57;4.85;;;1.20;98.30;;;;;;5200666;22;20260;-82
2021/03/05 06:37:06;;;;;;;6.78;4.40;;;1.20;98.30;;;;;;5199947;22;20196;-82
2021/03/05 06:39:09;;;;;;;6.72;4.60;;;1.30;98.30;;;;;;5199468;22;20196;-82
2021/03/05 06:41:22;;;;;;;7.93;4.80;;;1.40;98.30;;;;;;5190934;22;20282;-82
2021/03/05 06:43:43;;;;;;;7.68;4.85;;;1.40;98.30;;;;;;5191219;22;20200;-82
2021/03/05 06:45:45;;;;;;;8.10;5.18;;;1.50;98.30;;;;;;5191214;22;20204;-82
2021/03/05 06:48:05;;;;;;;6.18;5.07;;;1.50;98.30;;;;;;5191314;22;20676;-82
2021/03/05 06:50:21;;;;;;;8.95;4.90;;;1.60;98.30;;;;;;5191165;22;20204;-82
2021/03/05 06:55:21;;;;;;;6.63;4.85;;;1.70;98.30;;;;;;5157953;22;20200;-81
2021/03/05 06:57:27;;;;;;;11.10;5.30;;;1.80;98.30;;;;;;5192838;22;20204;-82
2021/03/05 06:59:37;;;;;;;34.47;21.48;;;2.00;98.30;;;;;;5193079;22;20208;-81
2021/03/05 07:01:48;;;;;;;368.58;217.15;;;2.20;98.30;;;;;;5198551;22;20208;-80
2021/03/05 07:04:08;;;;;;;206.85;132.65;;;2.30;98.30;;;;;;5201461;22;20203;-80
2021/03/05 07:06:18;;;;;;;29.95;20.65;;;2.40;98.30;;;;;;5192939;22;20283;-83
2021/03/05 07:08:40;;;;;;;16.15;6.95;;;2.60;98.30;;;;;;5200216;22;20200;-81
2021/03/05 07:10:43;;;;;;;10.73;6.95;;;2.70;98.30;;;;;;5192285;22;20208;-81
2021/03/05 07:13:01;;;;;;;7.97;5.25;;;2.80;98.30;;;;;;5200747;22;20501;-81
2021/03/05 07:15:06;;;;;;;9.98;5.78;;;3.00;98.30;;;;;;5200925;22;20202;-81
2021/03/05 07:17:11;;;;;;;6.60;5.07;;;3.20;98.30;;;;;;5200804;22;20204;-81
2021/03/05 07:19:17;;;;;;;9.60;5.15;;;3.30;98.30;;;;;;5191567;22;20208;-81
2021/03/05 07:21:20;;;;;;;7.45;4.63;;;3.40;98.30;;;;;;5201385;22;20492;-81
2021/03/05 07:23:24;;;;;;;5.47;4.18;;;3.40;98.30;;;;;;5201028;22;20196;-80
2021/03/05 07:25:28;;;;;;;7.40;4.63;;;3.50;98.30;;;;;;5201359;22;20206;-81
2021/03/05 07:27:37;;;;;;;7.10;3.72;;;3.60;98.30;;;;;;5201060;22;20204;-81
2021/03/05 07:29:50;;;;;;;7.15;4.70;;;3.70;98.30;;;;;;5192125;22;20241;-81
2021/03/05 07:32:07;;;;;;;9.40;4.93;;;3.80;98.30;;;;;;5192755;22;20239;-81
2021/03/05 07:34:16;;;;;;;10.75;4.95;;;3.90;98.30;;;;;;5200727;22;20208;-82
2021/03/05 07:36:23;;;;;;;8.18;4.30;;;4.10;98.30;;;;;;5192452;22;20230;-81
2021/03/05 07:38:32;;;;;;;5.63;4.20;;;4.10;98.30;;;;;;5200642;22;20207;-81
2021/03/05 07:40:44;;;;;;;6.82;4.10;;;4.20;98.30;;;;;;5192398;22;20207;-81
2021/03/05 07:42:49;;;;;;;5.87;4.43;;;4.30;98.30;;;;;;5192149;22;20262;-82
2021/03/05 07:44:51;;;;;;;7.82;4.15;;;4.40;98.30;;;;;;5201486;22;20450;-82
2021/03/05 07:46:54;;;;;;;23.98;12.98;;;4.50;98.30;;;;;;5193473;22;20205;-82
2021/03/05 07:48:57;;;;;;;43.70;22.40;;;4.70;98.30;;;;;;5200842;22;20258;-81
2021/03/05 07:51:00;;;;;;;27.40;15.83;;;5.20;98.30;;;;;;5191979;22;20534;-83
2021/03/05 07:53:03;;;;;;;12.52;8.65;;;5.40;98.30;;;;;;5193864;22;20455;-82
2021/03/05 07:55:06;;;;;;;6.60;4.80;;;5.30;98.30;;;;;;5192899;22;20208;-82
2021/03/05 07:57:25;;;;;;;7.57;5.20;;;5.20;97.60;;;;;;5192787;22;20970;-83
2021/03/05 07:59:56;;;;;;;7.23;4.53;;;5.10;97.60;;;;;;5192596;22;20451;-83
2021/03/05 08:02:08;;;;;;;14.90;7.20;;;5.10;97.20;;;;;;5134064;22;20767;-83
2021/03/05 08:04:13;;;;;;;43.97;23.37;;;5.10;97.00;;;;;;5201472;22;20766;-83
2021/03/05 08:06:30;;;;;;;77.60;40.80;;;5.60;98.30;;;;;;5205135;22;20442;-81
2021/03/05 08:08:33;;;;;;;67.77;34.30;;;6.00;98.30;;;;;;5199151;22;20443;-82
2021/03/05 08:10:36;;;;;;;14.30;7.93;;;6.20;97.90;;;;;;5191055;22;20486;-83
2021/03/05 08:12:43;;;;;;;6.43;4.73;;;6.20;95.40;;;;;;5199539;22;20502;-83
2021/03/05 08:14:45;;;;;;;5.77;4.30;;;5.90;94.30;;;;;;5190873;22;20451;-83
2021/03/05 08:16:49;;;;;;;5.13;4.10;;;5.70;94.20;;;;;;5190672;22;20456;-82
2021/03/05 08:18:52;;;;;;;8.13;4.60;;;5.80;94.20;;;;;;5198542;22;21020;-83
2021/03/05 08:20:56;;;;;;;9.70;4.57;;;5.90;94.10;;;;;;5199033;22;20517;-83
2021/03/05 08:23:09;;;;;;;9.40;4.57;;;6.00;93.90;;;;;;5189966;22;20838;-83
2021/03/05 08:25:23;;;;;;;10.47;4.40;;;6.20;93.20;;;;;;5190674;22;20456;-82
2021/03/05 08:27:39;;;;;;;6.33;4.87;;;6.30;93.00;;;;;;5199722;22;20438;-82
2021/03/05 08:30:00;;;;;;;8.70;3.77;;;6.40;92.50;;;;;;5198777;22;20433;-83
2021/03/05 08:32:04;;;;;;;4.63;3.60;;;6.50;91.60;;;;;;5199966;22;21246;-83
2021/03/05 08:34:26;;;;;;;4.87;3.87;;;6.70;91.10;;;;;;5191517;22;20569;-83
2021/03/05 08:36:46;;;;;;;6.43;3.83;;;6.60;90.30;;;;;;5200067;22;20993;-83
2021/03/05 08:38:48;;;;;;;4.40;3.80;;;6.70;90.10;;;;;;5199389;22;20526;-83
2021/03/05 08:40:52;;;;;;;5.23;3.40;;;6.80;90.20;;;;;;5200624;22;20438;-82
2021/03/05 08:42:57;;;;;;;10.23;4.87;;;7.10;89.80;;;;;;5200581;22;20470;-83
2021/03/05 08:45:11;;;;;;;5.60;3.30;;;7.10;89.20;;;;;;5200033;22;20450;-83
2021/03/05 08:47:14;;;;;;;7.53;3.23;;;7.30;88.20;;;;;;5200088;22;20842;-83
2021/03/05 08:49:16;;;;;;;5.60;3.53;;;7.40;87.40;;;;;;5191748;22;20432;-83
2021/03/05 08:51:20;;;;;;;7.40;3.60;;;7.50;87.10;;;;;;5200626;22;20442;-83
2021/03/05 08:53:22;;;;;;;3.57;3.00;;;7.60;86.50;;;;;;5192454;22;20455;-83
2021/03/05 08:55:24;;;;;;;5.00;2.80;;;7.70;86.40;;;;;;5192605;22;20751;-83
2021/03/05 08:57:26;;;;;;;9.00;3.13;;;7.80;85.80;;;;;;5200577;22;20489;-83
2021/03/05 08:59:36;;;;;;;8.13;3.70;;;7.80;84.80;;;;;;5191995;22;20454;-84
2021/03/05 09:01:39;;;;;;;5.73;2.73;;;8.00;84.50;;;;;;5201313;22;20453;-83
2021/03/05 09:03:43;;;;;;;19.57;11.00;;;8.00;83.40;;;;;;5192618;22;20458;-83
2021/03/05 09:05:46;;;;;;;17.83;7.90;;;8.40;86.50;;;;;;5192252;22;20449;-83
2021/03/05 09:07:50;;;;;;;20.67;9.80;;;8.60;85.00;;;;;;5190385;22;20763;-83
2021/03/05 09:09:56;;;;;;;48.07;27.67;;;8.80;82.70;;;;;;5191619;22;21041;-83
2021/03/05 09:12:08;;;;;;;57.17;31.53;;;8.90;81.30;;;;;;5200420;22;20470;-83
2021/03/05 09:14:24;;;;;;;28.60;18.30;;;8.80;79.80;;;;;;5206395;22;20498;-83
2021/03/05 09:16:26;;;;;;;12.90;8.10;;;9.00;80.10;;;;;;5199704;22;20934;-83
2021/03/05 09:18:30;;;;;;;10.17;6.30;;;9.30;80.80;;;;;;5190361;22;20451;-83
2021/03/05 09:20:40;;;;;;;7.93;5.20;;;9.50;80.20;;;;;;5198610;22;21110;-83
2021/03/05 09:22:42;;;;;;;7.00;4.33;;;9.70;78.90;;;;;;5199269;22;20470;-83
2021/03/05 09:25:06;;;;;;;8.10;4.90;;;9.90;77.60;;;;;;5191134;22;20454;-83
2021/03/05 09:27:17;;;;;;;5.17;3.50;;;10.10;76.90;;;;;;5199719;22;21249;-83
2021/03/05 09:29:28;;;;;;;3.60;2.93;;;10.20;76.50;;;;;;5199128;22;20412;-83
2021/03/05 09:31:31;;;;;;;42.63;23.33;;;10.20;74.10;;;;;;5199666;22;20769;-83
2021/03/05 09:33:34;;;;;;;63.03;36.50;;;10.00;73.60;;;;;;5190789;22;20484;-83
2021/03/05 09:35:38;;;;;;;39.97;25.80;;;10.00;74.00;;;;;;5199495;22;20450;-83
2021/03/05 09:37:40;;;;;;;11.73;6.33;;;10.00;73.70;;;;;;5198580;22;20449;-83
2021/03/05 09:39:43;;;;;;;4.77;3.50;;;10.00;73.20;;;;;;5198773;22;21001;-83
2021/03/05 09:41:47;;;;;;;5.17;3.27;;;10.20;73.40;;;;;;5191483;22;20458;-83
2021/03/05 09:43:58;;;;;;;3.30;2.40;;;10.20;72.70;;;;;;5191694;22;20521;-84
2021/03/05 09:46:00;;;;;;;3.50;2.77;;;10.40;72.90;;;;;;5192280;22;20936;-83
2021/03/05 09:48:04;;;;;;;4.53;3.80;;;10.70;72.70;;;;;;5200324;22;20864;-83
2021/03/05 09:50:17;;;;;;;40.47;20.87;;;10.80;72.40;;;;;;5190759;22;20453;-83
2021/03/05 09:52:26;;;;;;;64.77;34.33;;;10.70;72.10;;;;;;5200293;22;20830;-83
2021/03/05 09:54:39;;;;;;;18.60;11.03;;;10.80;72.80;;;;;;5191580;22;20486;-83
2021/03/05 09:56:43;;;;;;;8.23;5.03;;;11.00;72.70;;;;;;5200075;22;20854;-84
2021/03/05 09:58:57;;;;;;;3.13;2.80;;;11.20;72.10;;;;;;5200233;22;20443;-83
2021/03/05 10:01:09;;;;;;;5.10;2.53;;;11.10;70.40;;;;;;5200272;22;21001;-84
2021/03/05 10:03:14;;;;;;;4.60;2.50;;;11.10;70.70;;;;;;5199358;22;20533;-83
2021/03/05 10:05:28;;;;;;;3.83;2.40;;;11.20;69.70;;;;;;5200074;22;20469;-83
2021/03/05 10:08:09;;;;;;;4.43;2.70;;;11.20;69.00;;;;;;5197824;22;20450;-82
2021/03/05 10:11:04;;;;;;;2.43;2.23;;;11.10;68.50;;;;;;5064961;23;20621;-82
2021/03/05 10:22:41;;;;;;;3.50;1.90;;;11.70;66.30;;;;;;5069167;23;20905;-82
2021/03/05 10:27:54;;;;;;;5.13;2.23;;;11.70;65.20;;;;;;5037819;23;20453;-83
2021/03/05 10:30:03;;;;;;;2.63;2.30;;;11.80;65.10;;;;;;5100508;23;20881;-82
2021/03/05 10:32:18;;;;;;;3.63;2.20;;;11.50;64.70;;;;;;5122539;23;20492;-82
2021/03/05 10:34:31;;;;;;;4.50;1.90;;;11.70;65.90;;;;;;5122554;23;20528;-82
2021/03/05 10:36:33;;;;;;;4.53;2.00;;;11.70;65.60;;;;;;5122616;23;20867;-82
2021/03/05 10:38:36;;;;;;;10.83;5.33;;;12.00;66.10;;;;;;5113996;23;20536;-83
2021/03/05 10:40:39;;;;;;;23.43;14.40;;;12.50;67.10;;;;;;5114155;23;20484;-83
2021/03/05 10:42:44;;;;;;;45.57;29.40;;;13.00;66.70;;;;;;5123105;23;20489;-83
2021/03/05 10:44:48;;;;;;;26.43;16.17;;;13.30;65.70;;;;;;5122784;23;20557;-83
2021/03/05 10:46:50;;;;;;;10.73;7.53;;;13.60;64.40;;;;;;5122365;23;20485;-83
2021/03/05 10:48:53;;;;;;;10.13;6.20;;;13.70;63.50;;;;;;5114403;23;20566;-83
2021/03/05 10:50:57;;;;;;;5.67;3.40;;;13.80;63.60;;;;;;5114410;23;20542;-82
2021/03/05 10:53:01;;;;;;;5.10;3.70;;;13.90;63.00;;;;;;5152211;22;20457;-83
2021/03/05 10:55:04;;;;;;;6.87;4.40;;;14.40;63.00;;;;;;5201203;22;20514;-83
2021/03/05 10:57:07;;;;;;;5.13;3.40;;;14.60;62.20;;;;;;5201039;22;20525;-83
2021/03/05 10:59:11;;;;;;;4.77;2.80;;;14.80;61.20;;;;;;5191128;22;20462;-83
2021/03/05 11:01:13;;;;;;;6.00;3.20;;;14.90;60.20;;;;;;5200712;22;21006;-83
2021/03/05 11:03:15;;;;;;;4.00;3.00;;;15.00;60.60;;;;;;5199813;22;20500;-83
2021/03/05 11:05:18;;;;;;;4.80;2.90;;;15.20;60.90;;;;;;5199637;22;20527;-83
2021/03/05 11:07:20;;;;;;;4.77;3.30;;;15.40;60.20;;;;;;5190611;22;20453;-83
2021/03/05 11:09:25;;;;;;;3.27;2.70;;;15.40;59.40;;;;;;5200081;22;20534;-83
2021/03/05 11:11:27;;;;;;;4.77;2.90;;;15.20;58.50;;;;;;5200767;22;20450;-83
2021/03/05 11:13:31;;;;;;;3.70;2.73;;;15.20;58.40;;;;;;5192683;22;20969;-83